Time;durP1;ratioP1;P1;durP2;ratioP2;P2;SDS_P1;SDS_P2;PMS_P1;PMS_P2;Temp;Humidity;BMP_temperature;BMP_pressure;BME280_temperature;BME280_humidity;BME280_pressure;Samples;Min_cycle;Max_cycle;Signal;HPM_P1;HPM_P2
2022/10/18 00:01:03;;;;;;;6.60;4.97;;;15.00;99.90;;;;;;5112926;28;20897;-87
2022/10/18 00:03:28;;;;;;;5.80;4.77;;;15.00;99.90;;;;;;5112788;28;20467;-88
2022/10/18 00:05:54;;;;;;;6.33;4.67;;;15.10;99.90;;;;;;5113035;28;20604;-87
2022/10/18 00:08:20;;;;;;;6.10;4.17;;;15.10;99.90;;;;;;5094250;28;20413;-87
2022/10/18 00:10:46;;;;;;;8.73;4.53;;;15.10;99.90;;;;;;5078341;28;20516;-87
2022/10/18 00:13:12;;;;;;;6.57;4.43;;;15.10;99.90;;;;;;5112885;28;20844;-86
2022/10/18 00:15:37;;;;;;;5.67;5.10;;;15.10;99.90;;;;;;5094482;28;20429;-86
2022/10/18 00:18:03;;;;;;;5.43;4.93;;;15.10;99.90;;;;;;5078074;28;20210;-87
2022/10/18 00:20:29;;;;;;;6.17;4.70;;;15.00;99.90;;;;;;5107453;28;20183;-85
2022/10/18 00:22:54;;;;;;;11.10;5.30;;;14.90;99.90;;;;;;5071071;28;20214;-85
2022/10/18 00:25:20;;;;;;;4.90;4.10;;;15.00;99.90;;;;;;5070991;28;20487;-85
2022/10/18 00:27:46;;;;;;;9.70;5.20;;;15.00;99.90;;;;;;5072602;28;20211;-85
2022/10/18 00:30:11;;;;;;;4.57;4.10;;;15.00;99.90;;;;;;5073093;28;20326;-84
2022/10/18 00:32:41;;;;;;;8.00;4.50;;;15.00;99.90;;;;;;5075485;28;20554;-83
2022/10/18 00:35:07;;;;;;;5.37;4.87;;;15.10;99.90;;;;;;5098577;28;20191;-86
2022/10/18 00:37:34;;;;;;;7.60;5.57;;;15.10;99.90;;;;;;5117109;28;20405;-85
2022/10/18 00:40:00;;;;;;;9.07;5.20;;;15.10;99.90;;;;;;5116776;28;20874;-85
2022/10/18 00:42:30;;;;;;;10.80;5.87;;;15.00;99.90;;;;;;5116837;28;20738;-85
2022/10/18 00:45:14;;;;;;;6.33;5.20;;;15.00;99.90;;;;;;5116718;28;20402;-85
2022/10/18 00:47:42;;;;;;;8.97;4.93;;;14.90;99.90;;;;;;5116717;28;20372;-84
2022/10/18 00:50:09;;;;;;;9.57;5.03;;;15.00;99.90;;;;;;5116396;28;20464;-86
2022/10/18 00:52:47;;;;;;;5.50;4.93;;;15.10;99.90;;;;;;5117078;28;20484;-85
2022/10/18 00:55:13;;;;;;;5.67;5.07;;;15.00;99.90;;;;;;5117011;28;20455;-85
2022/10/18 00:57:41;;;;;;;9.47;5.10;;;15.10;99.90;;;;;;5116093;28;20948;-85
2022/10/18 01:00:08;;;;;;;6.50;5.33;;;15.10;99.90;;;;;;5113608;28;20573;-84
2022/10/18 01:02:39;;;;;;;6.03;4.30;;;15.10;99.90;;;;;;5113873;28;20495;-85
2022/10/18 01:05:06;;;;;;;7.60;4.60;;;15.10;99.90;;;;;;5098376;28;20999;-85
2022/10/18 01:07:40;;;;;;;11.93;6.20;;;15.10;99.90;;;;;;5080959;28;20436;-85
2022/10/18 01:10:33;;;;;;;6.13;5.53;;;15.10;99.90;;;;;;5115776;28;20484;-85
2022/10/18 01:13:31;;;;;;;9.30;6.43;;;15.10;99.90;;;;;;5116284;28;20380;-85
2022/10/18 01:16:22;;;;;;;8.40;5.40;;;15.00;99.90;;;;;;5092455;28;20422;-85
2022/10/18 01:18:52;;;;;;;5.87;5.20;;;14.90;99.90;;;;;;5115921;28;20462;-85
2022/10/18 01:21:32;;;;;;;6.33;5.57;;;14.90;99.90;;;;;;5115452;28;20568;-84
2022/10/18 01:24:10;;;;;;;5.90;5.40;;;14.90;99.90;;;;;;5098112;28;20839;-85
2022/10/18 01:27:12;;;;;;;12.60;6.40;;;14.90;99.90;;;;;;5115507;28;20409;-85
2022/10/18 01:29:48;;;;;;;8.90;5.10;;;14.90;99.90;;;;;;5091025;28;20556;-85
2022/10/18 01:32:25;;;;;;;10.17;5.07;;;15.00;99.90;;;;;;5110699;28;20383;-86
2022/10/18 01:34:56;;;;;;;7.30;5.40;;;15.00;99.90;;;;;;5092614;28;20455;-86
2022/10/18 01:37:23;;;;;;;8.63;6.27;;;15.10;99.90;;;;;;5110518;28;20444;-87
2022/10/18 01:39:53;;;;;;;8.00;5.60;;;15.10;99.90;;;;;;5090727;28;20451;-87
2022/10/18 01:42:20;;;;;;;15.00;7.00;;;15.10;99.90;;;;;;5091561;28;20466;-85
2022/10/18 01:44:47;;;;;;;12.70;7.47;;;15.10;99.90;;;;;;5117418;28;20470;-90
2022/10/18 01:47:14;;;;;;;12.00;7.67;;;15.00;99.90;;;;;;5098430;28;20441;-89
2022/10/18 01:49:39;;;;;;;10.50;7.40;;;15.00;99.90;;;;;;5097905;28;20471;-89
2022/10/18 01:52:05;;;;;;;10.03;6.47;;;15.10;99.90;;;;;;5114805;28;20846;-86
2022/10/18 01:54:37;;;;;;;10.13;6.80;;;15.10;99.90;;;;;;5112119;28;20183;-87
2022/10/18 01:57:40;;;;;;;7.90;6.20;;;15.10;99.90;;;;;;5097499;28;20179;-88
2022/10/18 02:00:25;;;;;;;9.23;7.70;;;15.10;99.90;;;;;;5116052;28;20401;-89
2022/10/18 02:02:54;;;;;;;7.23;6.30;;;15.00;99.90;;;;;;5097692;28;20537;-88
2022/10/18 02:05:43;;;;;;;8.07;7.10;;;15.00;99.90;;;;;;5097361;28;20429;-85
2022/10/18 02:08:16;;;;;;;11.43;6.60;;;15.10;99.90;;;;;;5115500;28;20771;-88
2022/10/18 02:10:46;;;;;;;9.97;7.13;;;15.10;99.90;;;;;;5115393;28;20468;-89
2022/10/18 02:13:15;;;;;;;10.07;7.43;;;15.20;99.90;;;;;;5115982;28;20414;-90
2022/10/18 02:15:44;;;;;;;8.93;7.27;;;15.20;99.90;;;;;;5115256;28;20507;-89
2022/10/18 02:18:16;;;;;;;9.33;6.70;;;15.20;99.90;;;;;;5115330;28;20494;-89
2022/10/18 02:20:41;;;;;;;13.87;8.63;;;15.10;99.90;;;;;;5097140;28;20482;-88
2022/10/18 02:23:09;;;;;;;11.03;8.20;;;15.10;99.90;;;;;;5097148;28;20829;-90
2022/10/18 02:25:36;;;;;;;12.73;8.70;;;15.10;99.90;;;;;;5115433;28;20635;-90
2022/10/18 02:28:03;;;;;;;9.33;7.80;;;15.10;99.90;;;;;;5097109;28;20512;-89
2022/10/18 02:30:57;;;;;;;10.90;7.33;;;15.10;99.90;;;;;;5096857;28;20473;-88
2022/10/18 02:33:42;;;;;;;16.73;8.90;;;15.10;99.90;;;;;;5097093;28;20409;-87
2022/10/18 02:36:18;;;;;;;11.00;9.83;;;15.20;99.90;;;;;;5097361;28;20421;-89
2022/10/18 02:38:45;;;;;;;10.67;8.00;;;15.20;99.90;;;;;;5114960;28;20444;-89
2022/10/18 02:41:11;;;;;;;16.03;9.03;;;15.20;99.90;;;;;;5116481;28;20414;-88
2022/10/18 02:43:36;;;;;;;11.23;8.87;;;15.20;99.90;;;;;;5080933;28;20396;-89
2022/10/18 02:46:02;;;;;;;12.50;8.07;;;15.20;99.90;;;;;;5097530;28;20635;-89
2022/10/18 02:48:28;;;;;;;10.57;9.10;;;15.20;99.90;;;;;;5114442;28;20270;-88
2022/10/18 02:50:54;;;;;;;14.20;9.50;;;15.20;99.90;;;;;;5114600;28;20960;-89
2022/10/18 02:53:19;;;;;;;9.60;8.20;;;15.20;99.90;;;;;;5114163;28;20201;-89
2022/10/18 02:55:45;;;;;;;12.60;9.30;;;15.20;99.90;;;;;;5096562;28;20179;-89
2022/10/18 02:58:10;;;;;;;11.17;9.10;;;15.10;99.90;;;;;;5080075;28;20239;-89
2022/10/18 03:00:36;;;;;;;11.77;9.27;;;15.20;99.90;;;;;;5096657;28;20187;-90
2022/10/18 03:03:01;;;;;;;16.63;10.27;;;15.10;99.90;;;;;;5079695;28;20270;-89
2022/10/18 03:05:27;;;;;;;9.50;7.97;;;15.10;99.90;;;;;;5079513;28;20193;-88
2022/10/18 03:07:56;;;;;;;16.63;7.47;;;15.20;99.90;;;;;;5079593;28;20233;-87
2022/10/18 03:10:22;;;;;;;11.23;8.83;;;15.10;99.90;;;;;;5096183;28;20246;-88
2022/10/18 03:12:47;;;;;;;10.07;8.20;;;15.20;99.90;;;;;;5114237;28;20413;-89
2022/10/18 03:15:13;;;;;;;12.57;8.73;;;15.10;99.90;;;;;;5096292;28;20572;-88
2022/10/18 03:17:38;;;;;;;11.80;8.00;;;15.20;99.90;;;;;;5096126;28;20175;-89
2022/10/18 03:20:04;;;;;;;10.50;9.07;;;15.20;99.90;;;;;;5096399;28;20179;-90
2022/10/18 03:22:30;;;;;;;10.83;9.80;;;15.20;99.90;;;;;;5079427;28;20529;-89
2022/10/18 03:24:56;;;;;;;13.80;8.30;;;15.20;99.90;;;;;;5114198;28;20405;-88
2022/10/18 03:27:21;;;;;;;10.13;7.53;;;15.20;99.90;;;;;;5096089;28;20197;-88
2022/10/18 03:29:47;;;;;;;10.87;7.67;;;15.20;99.90;;;;;;5113758;28;20574;-88
2022/10/18 03:32:12;;;;;;;12.03;9.50;;;15.20;99.90;;;;;;5096087;28;20254;-88
2022/10/18 03:34:38;;;;;;;9.50;8.50;;;15.20;99.90;;;;;;5078929;28;20175;-87
2022/10/18 03:37:03;;;;;;;10.83;9.73;;;15.20;99.90;;;;;;5096047;28;20231;-88
2022/10/18 03:39:29;;;;;;;9.43;8.40;;;15.20;99.90;;;;;;5113552;28;20180;-87
2022/10/18 03:41:54;;;;;;;8.70;7.83;;;15.20;99.90;;;;;;5062022;28;20175;-86
2022/10/18 03:44:20;;;;;;;9.60;7.77;;;15.20;99.90;;;;;;5095823;28;20329;-87
2022/10/18 03:46:45;;;;;;;9.33;8.33;;;15.20;99.90;;;;;;5113751;28;20188;-87
2022/10/18 03:49:11;;;;;;;10.40;8.47;;;15.20;99.90;;;;;;5079219;28;20203;-86
2022/10/18 03:51:37;;;;;;;9.47;7.53;;;15.10;99.90;;;;;;5095618;28;20228;-86
2022/10/18 03:54:02;;;;;;;11.07;8.83;;;15.10;99.90;;;;;;5095949;28;20232;-85
2022/10/18 03:56:28;;;;;;;11.30;8.63;;;15.10;99.90;;;;;;5095366;28;20266;-85
2022/10/18 03:58:53;;;;;;;9.70;8.07;;;15.00;99.90;;;;;;5078765;28;20187;-85
2022/10/18 04:01:19;;;;;;;12.40;8.10;;;15.10;99.90;;;;;;5078815;28;20619;-85
2022/10/18 04:03:44;;;;;;;8.63;7.77;;;15.10;99.90;;;;;;5113191;28;20179;-85
2022/10/18 04:06:10;;;;;;;9.00;8.10;;;15.10;99.90;;;;;;5095580;28;20199;-85
2022/10/18 04:08:36;;;;;;;19.63;8.47;;;15.10;99.90;;;;;;5061294;28;20231;-85
2022/10/18 04:11:09;;;;;;;12.70;7.00;;;15.10;99.90;;;;;;5078959;28;20179;-85
2022/10/18 04:13:35;;;;;;;10.23;7.40;;;15.00;99.90;;;;;;5095135;28;20183;-85
2022/10/18 04:16:00;;;;;;;48.17;10.43;;;15.10;99.90;;;;;;5087200;28;20438;-84
2022/10/18 04:18:26;;;;;;;24.40;8.70;;;15.00;99.90;;;;;;5041697;28;20560;-85
2022/10/18 04:20:52;;;;;;;52.40;9.40;;;15.00;99.90;;;;;;5075193;28;20180;-85
2022/10/18 04:23:17;;;;;;;12.70;8.07;;;15.00;99.90;;;;;;5075376;28;20232;-84
2022/10/18 04:25:43;;;;;;;8.57;7.70;;;14.90;99.90;;;;;;5074859;28;20511;-85
2022/10/18 04:28:08;;;;;;;8.87;7.97;;;14.90;99.90;;;;;;5075059;28;20184;-84
2022/10/18 04:30:34;;;;;;;9.50;7.13;;;14.90;99.90;;;;;;5074802;28;20203;-84
2022/10/18 04:32:59;;;;;;;10.30;7.60;;;14.90;99.90;;;;;;5075016;28;20270;-84
2022/10/18 04:35:27;;;;;;;19.30;7.80;;;15.00;99.90;;;;;;5075057;28;20172;-85
2022/10/18 04:37:53;;;;;;;61.20;10.20;;;14.90;99.90;;;;;;5074902;28;20624;-85
2022/10/18 04:40:19;;;;;;;27.03;8.20;;;15.00;99.90;;;;;;5092974;28;20430;-85
2022/10/18 04:42:44;;;;;;;9.50;8.00;;;15.00;99.90;;;;;;5074797;28;20444;-85
2022/10/18 04:45:10;;;;;;;8.80;7.63;;;15.00;99.90;;;;;;5074715;28;20638;-85
2022/10/18 04:47:36;;;;;;;9.27;8.37;;;15.10;99.90;;;;;;5074325;28;20510;-86
2022/10/18 04:50:02;;;;;;;9.10;7.30;;;15.10;99.90;;;;;;5092939;28;20208;-85
2022/10/18 04:52:28;;;;;;;9.53;7.83;;;15.10;99.90;;;;;;5074900;28;20642;-85
2022/10/18 04:54:53;;;;;;;8.40;7.50;;;15.00;99.90;;;;;;5041233;28;20517;-86
2022/10/18 04:57:19;;;;;;;14.20;7.93;;;15.10;99.90;;;;;;5058156;28;20651;-85
2022/10/18 04:59:44;;;;;;;9.67;8.60;;;15.10;99.90;;;;;;5092443;28;20180;-85
2022/10/18 05:02:10;;;;;;;8.43;7.57;;;15.00;99.90;;;;;;5058223;28;20180;-85
2022/10/18 05:04:35;;;;;;;11.17;8.50;;;15.00;99.90;;;;;;5074736;28;20527;-84
2022/10/18 05:07:01;;;;;;;10.40;8.00;;;15.00;99.90;;;;;;5074692;28;20640;-85
2022/10/18 05:09:27;;;;;;;10.07;7.87;;;15.00;99.90;;;;;;5092565;28;20264;-84
2022/10/18 05:11:53;;;;;;;17.30;9.13;;;15.00;99.90;;;;;;5092580;28;20406;-84
2022/10/18 05:14:18;;;;;;;13.60;10.03;;;15.10;99.90;;;;;;5057713;28;20188;-84
2022/10/18 05:16:44;;;;;;;11.60;9.37;;;15.10;99.90;;;;;;5075576;28;20179;-84
2022/10/18 05:19:09;;;;;;;16.13;11.17;;;15.20;99.90;;;;;;5078370;28;20180;-84
2022/10/18 05:21:35;;;;;;;15.80;11.00;;;15.10;99.90;;;;;;5077946;28;20183;-84
2022/10/18 05:24:01;;;;;;;11.33;9.70;;;15.10;99.90;;;;;;5078503;28;20184;-84
2022/10/18 05:26:26;;;;;;;16.20;10.33;;;15.10;99.90;;;;;;5096541;28;20234;-84
2022/10/18 05:28:52;;;;;;;23.20;12.90;;;15.10;99.90;;;;;;5077788;28;20551;-84
2022/10/18 05:31:17;;;;;;;21.23;10.83;;;15.00;99.90;;;;;;5061077;28;20180;-84
2022/10/18 05:33:43;;;;;;;19.00;12.00;;;15.10;99.90;;;;;;5061453;28;20184;-84
2022/10/18 05:36:09;;;;;;;17.87;12.30;;;15.20;99.90;;;;;;5096247;28;20601;-84
2022/10/18 05:38:39;;;;;;;17.20;12.43;;;15.10;99.90;;;;;;5077829;28;20624;-84
2022/10/18 05:41:05;;;;;;;18.10;13.20;;;15.10;99.90;;;;;;5095920;28;20414;-84
2022/10/18 05:43:30;;;;;;;18.33;13.40;;;15.10;99.90;;;;;;5061329;28;20414;-84
2022/10/18 05:45:56;;;;;;;17.40;12.63;;;15.10;99.90;;;;;;5095779;28;20750;-84
2022/10/18 05:48:21;;;;;;;21.43;12.80;;;15.10;99.90;;;;;;5077700;28;20229;-84
2022/10/18 05:50:47;;;;;;;16.60;11.87;;;15.10;99.90;;;;;;5060791;28;20613;-84
2022/10/18 05:53:12;;;;;;;16.60;12.13;;;15.10;99.90;;;;;;5095860;28;20177;-84
2022/10/18 05:55:38;;;;;;;17.17;11.13;;;15.10;99.90;;;;;;5077386;28;20230;-84
2022/10/18 05:58:04;;;;;;;16.30;11.30;;;15.10;99.90;;;;;;5095700;28;20182;-84
2022/10/18 06:00:29;;;;;;;17.43;10.97;;;15.10;99.90;;;;;;5060758;28;20191;-85
2022/10/18 06:02:55;;;;;;;18.63;10.90;;;15.20;99.90;;;;;;5059911;28;20240;-84
2022/10/18 06:05:20;;;;;;;20.03;12.50;;;15.20;99.90;;;;;;5060780;28;20553;-84
2022/10/18 06:07:46;;;;;;;20.77;12.43;;;15.20;99.90;;;;;;5095194;28;20200;-84
2022/10/18 06:10:12;;;;;;;16.73;12.60;;;15.30;99.90;;;;;;5077435;28;20345;-84
2022/10/18 06:12:37;;;;;;;20.13;12.60;;;15.30;99.90;;;;;;5095474;28;20241;-83
2022/10/18 06:15:04;;;;;;;13.40;11.30;;;15.30;99.90;;;;;;5076923;28;20198;-83
2022/10/18 06:17:29;;;;;;;19.40;13.13;;;15.20;99.90;;;;;;5095065;28;20271;-84
2022/10/18 06:19:55;;;;;;;18.13;12.50;;;15.20;99.90;;;;;;5076585;28;20472;-85
2022/10/18 06:22:20;;;;;;;15.50;11.87;;;15.20;99.90;;;;;;5057470;28;20184;-85
2022/10/18 06:24:46;;;;;;;16.60;12.57;;;15.20;99.90;;;;;;5059442;28;20176;-85
2022/10/18 06:27:11;;;;;;;16.57;12.00;;;15.20;99.90;;;;;;5077009;28;20188;-84
2022/10/18 06:29:38;;;;;;;16.07;12.07;;;15.30;99.90;;;;;;5075337;28;20204;-85
2022/10/18 06:32:05;;;;;;;18.83;10.90;;;15.30;99.90;;;;;;5076936;28;20186;-84
2022/10/18 06:34:31;;;;;;;17.00;12.60;;;15.30;99.90;;;;;;5076567;28;20426;-84
2022/10/18 06:36:57;;;;;;;19.53;12.40;;;15.30;99.90;;;;;;5075791;28;20414;-84
2022/10/18 06:39:23;;;;;;;20.20;11.63;;;15.30;99.90;;;;;;5076795;28;20418;-84
2022/10/18 06:41:48;;;;;;;17.73;13.63;;;15.30;99.90;;;;;;5076015;28;20267;-84
2022/10/18 06:44:15;;;;;;;17.70;12.43;;;15.30;99.90;;;;;;5059776;28;20404;-84
2022/10/18 06:46:42;;;;;;;17.93;13.17;;;15.30;99.90;;;;;;5076148;28;20725;-85
2022/10/18 06:49:08;;;;;;;17.73;13.67;;;15.30;99.90;;;;;;5059991;28;20599;-85
2022/10/18 06:51:33;;;;;;;15.50;11.63;;;15.30;99.90;;;;;;5076450;28;20508;-86
2022/10/18 06:53:59;;;;;;;20.43;13.47;;;15.30;99.90;;;;;;5075959;28;20594;-86
2022/10/18 06:56:24;;;;;;;18.43;13.33;;;15.20;99.90;;;;;;5094385;28;20184;-86
2022/10/18 06:58:50;;;;;;;18.80;14.33;;;15.20;99.90;;;;;;5059520;28;20245;-86
2022/10/18 07:01:17;;;;;;;17.23;12.37;;;15.20;99.90;;;;;;5060024;28;20607;-86
2022/10/18 07:03:44;;;;;;;16.83;12.03;;;15.30;99.90;;;;;;5076072;28;20184;-86
2022/10/18 07:06:12;;;;;;;19.57;12.70;;;15.30;99.90;;;;;;5076966;28;20388;-91
2022/10/18 07:08:38;;;;;;;16.80;12.10;;;15.30;99.90;;;;;;5095015;28;20444;-91
2022/10/18 07:11:05;;;;;;;19.87;15.47;;;15.40;99.90;;;;;;5077703;28;20422;-91
2022/10/18 07:13:32;;;;;;;22.13;15.07;;;15.40;99.90;;;;;;5077489;28;20393;-91
2022/10/18 07:16:09;;;;;;;22.30;15.53;;;15.40;99.90;;;;;;5077212;28;20404;-91
2022/10/18 07:18:40;;;;;;;24.30;15.30;;;15.40;99.90;;;;;;5077465;28;20483;-92
2022/10/18 07:21:08;;;;;;;20.10;14.40;;;15.40;99.90;;;;;;5077550;28;20396;-92
2022/10/18 07:23:36;;;;;;;23.67;15.50;;;15.50;99.90;;;;;;5077930;28;20418;-92
2022/10/18 07:26:04;;;;;;;27.10;16.07;;;15.40;99.90;;;;;;5073610;28;20794;-91
2022/10/18 07:28:29;;;;;;;23.73;16.13;;;15.50;99.90;;;;;;5073944;28;20417;-92
2022/10/18 07:30:55;;;;;;;25.20;17.00;;;15.50;99.90;;;;;;5072749;28;20474;-92
2022/10/18 07:33:22;;;;;;;22.00;15.30;;;15.50;99.90;;;;;;5072600;28;20172;-93
2022/10/18 07:35:47;;;;;;;28.20;15.70;;;15.50;99.90;;;;;;5072161;28;20184;-92
2022/10/18 07:38:13;;;;;;;27.33;16.10;;;15.50;99.90;;;;;;5078463;28;20415;-92
2022/10/18 07:40:38;;;;;;;25.43;16.83;;;15.50;99.90;;;;;;5060938;28;20180;-92
2022/10/18 07:43:04;;;;;;;27.40;17.80;;;15.50;99.90;;;;;;5078113;28;20238;-92
2022/10/18 07:45:30;;;;;;;29.30;19.37;;;15.50;99.90;;;;;;5060952;28;20184;-92
2022/10/18 07:47:56;;;;;;;29.20;17.83;;;15.50;99.90;;;;;;5077217;28;20172;-92
2022/10/18 07:50:22;;;;;;;25.03;16.60;;;15.60;99.90;;;;;;5077484;28;20443;-91
2022/10/18 07:52:48;;;;;;;31.47;19.80;;;15.50;99.90;;;;;;5077204;28;20426;-91
2022/10/18 07:55:14;;;;;;;26.60;17.13;;;15.60;99.90;;;;;;5077010;28;20420;-92
2022/10/18 07:57:40;;;;;;;25.27;16.97;;;15.60;99.90;;;;;;5077395;28;20179;-92
2022/10/18 08:00:07;;;;;;;28.40;18.47;;;15.60;99.90;;;;;;5078430;28;20179;-92
2022/10/18 08:02:33;;;;;;;26.43;19.83;;;15.60;99.90;;;;;;5078809;28;20176;-92
2022/10/18 08:04:59;;;;;;;28.57;16.87;;;15.70;99.90;;;;;;5078578;28;20404;-92
2022/10/18 08:07:25;;;;;;;36.10;21.23;;;15.60;99.90;;;;;;5066404;28;20414;-92
2022/10/18 08:09:50;;;;;;;32.73;20.47;;;15.70;99.90;;;;;;5082652;28;20270;-92
2022/10/18 08:12:16;;;;;;;31.13;19.30;;;15.70;99.90;;;;;;5084262;28;20211;-93
2022/10/18 08:14:42;;;;;;;28.10;19.47;;;15.60;99.90;;;;;;5061567;28;20214;-92
2022/10/18 08:17:07;;;;;;;29.77;21.70;;;15.70;99.90;;;;;;5078184;28;20613;-92
2022/10/18 08:19:33;;;;;;;31.67;21.70;;;15.80;99.90;;;;;;5068010;28;20278;-93
2022/10/18 08:21:59;;;;;;;31.20;22.50;;;15.70;99.90;;;;;;5077005;28;20180;-92
2022/10/18 08:24:26;;;;;;;30.70;21.87;;;15.70;99.90;;;;;;5077602;28;20184;-92
2022/10/18 08:26:52;;;;;;;30.83;21.87;;;15.70;99.90;;;;;;5060741;28;20218;-93
2022/10/18 08:29:18;;;;;;;41.37;25.20;;;15.70;99.90;;;;;;5077732;28;20516;-93
2022/10/18 08:31:43;;;;;;;32.73;22.30;;;15.80;99.90;;;;;;5078089;28;20184;-92
2022/10/18 08:34:09;;;;;;;31.97;21.77;;;15.70;99.90;;;;;;5062102;28;20180;-95
2022/10/18 08:36:34;;;;;;;44.20;23.70;;;15.70;99.90;;;;;;5079805;28;20184;-91
2022/10/18 08:39:01;;;;;;;33.87;22.40;;;15.90;99.90;;;;;;5064488;28;20225;-92
2022/10/18 08:41:36;;;;;;;44.00;27.47;;;15.80;99.90;;;;;;5083315;28;20620;-96
2022/10/18 08:44:15;;;;;;;44.83;26.63;;;15.80;99.90;;;;;;5088440;28;20426;-95
2022/10/18 08:46:54;;;;;;;39.90;26.17;;;15.90;99.90;;;;;;5094066;28;20978;-95
2022/10/18 08:49:28;;;;;;;41.30;26.07;;;15.90;99.90;;;;;;5097378;28;20477;-93
2022/10/18 08:51:56;;;;;;;51.50;28.83;;;15.90;99.90;;;;;;5100986;28;20417;-92
2022/10/18 08:54:28;;;;;;;51.73;26.50;;;15.90;99.90;;;;;;5280266;22;20527;-93
2022/10/18 09:02:43;;;;;;;56.20;31.60;;;16.00;99.90;;;;;;6013011;22;21558;-91
2022/10/18 09:05:24;;;;;;;51.87;28.13;;;16.00;99.90;;;;;;5058178;28;20447;-94
2022/10/18 09:08:10;;;;;;;55.43;27.10;;;16.00;99.90;;;;;;5069887;28;20404;-94
2022/10/18 09:10:57;;;;;;;53.10;31.30;;;16.00;99.90;;;;;;5054554;28;20474;-95
2022/10/18 09:13:39;;;;;;;61.90;32.13;;;16.10;99.90;;;;;;5052392;28;20800;-95
2022/10/18 09:16:12;;;;;;;57.07;33.40;;;16.00;99.90;;;;;;5049811;28;20434;-96
2022/10/18 09:19:19;;;;;;;64.53;35.90;;;16.10;99.90;;;;;;5048638;28;20415;-94
2022/10/18 09:21:51;;;;;;;57.27;34.87;;;16.20;99.90;;;;;;5047270;28;20427;-95
2022/10/18 09:24:44;;;;;;;63.20;35.70;;;16.20;99.90;;;;;;5046186;28;20781;-94
2022/10/18 09:27:18;;;;;;;66.13;37.00;;;16.30;99.90;;;;;;5044675;28;20454;-96
2022/10/18 09:30:33;;;;;;;78.33;39.57;;;16.20;99.90;;;;;;5046684;28;20459;-95
2022/10/18 09:33:09;;;;;;;66.93;37.60;;;16.30;99.90;;;;;;5050505;28;20469;-94
2022/10/18 09:35:57;;;;;;;71.23;39.87;;;16.30;99.90;;;;;;5055534;28;20423;-94
2022/10/18 09:38:46;;;;;;;70.83;40.20;;;16.50;99.90;;;;;;5056083;28;20394;-95
2022/10/18 09:41:21;;;;;;;71.80;41.17;;;16.60;99.90;;;;;;5043845;28;20399;-94
2022/10/18 09:44:09;;;;;;;79.13;43.57;;;16.60;99.90;;;;;;5042968;28;20465;-92
2022/10/18 09:46:44;;;;;;;81.17;44.10;;;16.70;99.90;;;;;;5043621;28;20410;-95
2022/10/18 09:49:23;;;;;;;78.73;43.73;;;16.70;99.90;;;;;;5042542;28;20459;-95
2022/10/18 09:51:51;;;;;;;79.27;43.10;;;16.70;99.90;;;;;;5043376;28;20415;-92
2022/10/18 09:54:19;;;;;;;76.70;44.30;;;16.80;99.90;;;;;;5044464;28;20464;-94
2022/10/18 09:57:13;;;;;;;72.67;43.07;;;16.70;99.90;;;;;;5044511;28;20451;-93
2022/10/18 09:59:41;;;;;;;77.50;45.00;;;16.80;99.90;;;;;;5045913;28;20460;-93
2022/10/18 10:02:13;;;;;;;86.40;46.77;;;16.90;99.90;;;;;;5063713;28;20918;-93
2022/10/18 10:04:39;;;;;;;72.93;45.10;;;17.10;99.90;;;;;;5046445;28;20445;-93
2022/10/18 10:07:08;;;;;;;74.30;44.23;;;17.10;99.90;;;;;;5047970;28;20387;-91
2022/10/18 10:09:50;;;;;;;73.50;45.47;;;17.30;99.90;;;;;;5061303;28;20201;-93
2022/10/18 10:12:26;;;;;;;73.07;41.90;;;17.30;99.90;;;;;;5041261;28;20420;-93
2022/10/18 10:14:54;;;;;;;81.77;44.23;;;17.30;99.90;;;;;;5057727;28;20375;-91
2022/10/18 10:17:25;;;;;;;68.17;42.67;;;17.30;99.90;;;;;;5042844;28;20751;-93
2022/10/18 10:20:23;;;;;;;71.17;41.40;;;17.40;99.90;;;;;;5044602;28;20526;-92
2022/10/18 10:22:50;;;;;;;80.43;45.37;;;17.20;99.90;;;;;;5010258;28;20447;-93
2022/10/18 10:25:27;;;;;;;70.90;42.27;;;17.10;99.90;;;;;;5040473;28;20778;-93
2022/10/18 10:27:53;;;;;;;71.53;42.27;;;17.20;99.90;;;;;;5040640;28;20379;-92
2022/10/18 10:30:29;;;;;;;73.70;41.70;;;17.20;99.90;;;;;;5042919;28;20506;-92
2022/10/18 10:32:55;;;;;;;76.47;42.93;;;17.10;99.90;;;;;;5039958;28;20415;-92
2022/10/18 10:35:35;;;;;;;70.63;40.10;;;17.10;99.90;;;;;;5057675;28;20412;-91
2022/10/18 10:38:02;;;;;;;69.37;41.37;;;17.20;99.90;;;;;;5039832;28;20391;-92
2022/10/18 10:40:33;;;;;;;71.70;43.30;;;17.30;99.90;;;;;;5040428;28;20430;-92
2022/10/18 10:43:25;;;;;;;70.17;40.40;;;17.30;99.90;;;;;;5040539;28;20409;-92
2022/10/18 10:45:56;;;;;;;77.60;43.63;;;17.30;99.90;;;;;;5039719;28;20439;-91
2022/10/18 10:48:23;;;;;;;68.57;43.27;;;17.30;99.90;;;;;;5040332;28;20405;-94
2022/10/18 10:51:11;;;;;;;80.17;44.67;;;17.40;99.90;;;;;;5057486;28;20457;-94
2022/10/18 10:53:43;;;;;;;72.73;43.93;;;17.40;99.90;;;;;;5056473;28;20452;-91
2022/10/18 10:56:34;;;;;;;76.87;41.57;;;17.50;99.90;;;;;;5040415;28;20416;-90
2022/10/18 10:59:17;;;;;;;76.83;44.47;;;17.40;99.90;;;;;;5025862;28;20454;-89
2022/10/18 11:01:44;;;;;;;69.43;42.23;;;17.40;99.90;;;;;;5035762;28;20422;-90
2022/10/18 11:04:31;;;;;;;63.43;40.10;;;17.50;99.90;;;;;;5054111;28;20423;-89
2022/10/18 11:07:01;;;;;;;73.33;44.03;;;17.60;99.90;;;;;;5054824;28;20446;-93
2022/10/18 11:09:37;;;;;;;73.30;44.10;;;17.70;99.90;;;;;;5038295;28;20901;-92
2022/10/18 11:12:27;;;;;;;70.87;43.33;;;17.60;99.90;;;;;;5050554;28;20428;-92
2022/10/18 11:14:59;;;;;;;76.10;43.73;;;17.80;99.90;;;;;;5042354;28;20916;-91
2022/10/18 11:17:33;;;;;;;75.03;44.70;;;17.90;99.90;;;;;;5038145;28;20546;-93
2022/10/18 11:20:00;;;;;;;74.20;44.00;;;17.90;99.90;;;;;;5037979;28;20481;-92
2022/10/18 11:22:30;;;;;;;66.57;43.33;;;17.80;99.90;;;;;;5038144;28;20424;-92
2022/10/18 11:24:55;;;;;;;72.57;44.17;;;17.70;99.90;;;;;;5037608;28;20391;-91
2022/10/18 11:27:28;;;;;;;78.37;44.87;;;17.60;99.90;;;;;;5056171;28;20402;-92
2022/10/18 11:30:14;;;;;;;74.07;46.57;;;17.60;99.90;;;;;;5037749;28;20219;-91
2022/10/18 11:33:00;;;;;;;81.10;45.13;;;17.60;99.90;;;;;;5037665;28;21030;-92
2022/10/18 11:35:52;;;;;;;80.83;48.50;;;17.50;99.90;;;;;;5037709;28;20424;-92
2022/10/18 11:38:29;;;;;;;79.10;49.17;;;17.50;99.90;;;;;;5055487;28;20408;-92
2022/10/18 11:40:57;;;;;;;80.50;48.90;;;17.40;99.90;;;;;;5037387;28;20463;-92
2022/10/18 11:43:47;;;;;;;75.73;46.50;;;17.60;99.90;;;;;;5037563;28;20421;-92
2022/10/18 11:46:35;;;;;;;78.63;46.00;;;17.60;99.90;;;;;;5037121;28;20434;-91
2022/10/18 11:49:25;;;;;;;71.63;46.77;;;17.80;99.90;;;;;;5037104;28;20514;-92
2022/10/18 11:52:15;;;;;;;73.03;45.13;;;17.90;99.90;;;;;;5037996;28;20448;-92
2022/10/18 11:54:59;;;;;;;73.53;44.40;;;18.00;99.90;;;;;;5037652;28;20779;-92
2022/10/18 11:57:36;;;;;;;68.03;41.97;;;18.00;99.90;;;;;;5054888;28;20650;-92
2022/10/18 12:00:38;;;;;;;65.57;40.03;;;18.20;99.90;;;;;;5037060;28;20485;-91
2022/10/18 12:03:14;;;;;;;57.63;39.53;;;18.50;99.90;;;;;;5037172;28;20487;-92
2022/10/18 12:05:43;;;;;;;52.23;37.63;;;19.10;99.90;;;;;;5038239;28;20438;-92
2022/10/18 12:08:15;;;;;;;55.47;38.00;;;19.50;99.90;;;;;;5036580;28;20431;-91
2022/10/18 12:10:46;;;;;;;51.00;36.17;;;19.90;99.90;;;;;;5054565;28;20445;-91
2022/10/18 12:13:31;;;;;;;51.67;38.80;;;20.00;99.90;;;;;;5053935;28;20741;-92
2022/10/18 12:15:56;;;;;;;53.17;39.93;;;20.10;99.90;;;;;;5056504;28;20843;-91
2022/10/18 12:18:24;;;;;;;59.27;39.93;;;20.00;99.90;;;;;;5037029;28;20448;-92
2022/10/18 12:20:57;;;;;;;49.30;34.00;;;19.80;99.90;;;;;;5054743;28;20579;-92
2022/10/18 12:23:37;;;;;;;43.37;29.77;;;19.20;99.90;;;;;;5020881;28;20820;-91
2022/10/18 12:26:07;;;;;;;44.77;27.90;;;18.80;99.90;;;;;;5038976;28;20423;-92
2022/10/18 12:28:41;;;;;;;37.57;26.30;;;18.60;99.90;;;;;;5043101;28;20449;-91
2022/10/18 12:31:32;;;;;;;32.73;24.17;;;18.40;99.90;;;;;;5040970;28;20463;-90
2022/10/18 12:34:03;;;;;;;32.73;25.07;;;18.30;99.90;;;;;;5040948;28;20812;-92
2022/10/18 12:36:37;;;;;;;33.13;25.17;;;18.40;99.90;;;;;;5041631;28;20424;-92
2022/10/18 12:39:08;;;;;;;34.20;22.70;;;18.70;99.90;;;;;;5059162;28;20431;-92
2022/10/18 12:41:35;;;;;;;36.07;25.63;;;18.70;99.90;;;;;;5058714;28;20401;-91
2022/10/18 12:44:05;;;;;;;40.87;26.87;;;19.00;99.90;;;;;;5040676;28;20912;-92
2022/10/18 12:46:52;;;;;;;39.40;26.47;;;19.30;99.90;;;;;;5041081;28;20892;-91
2022/10/18 12:49:32;;;;;;;33.90;24.03;;;19.80;99.90;;;;;;5040501;28;21348;-92
2022/10/18 12:52:03;;;;;;;33.57;23.37;;;20.00;99.90;;;;;;5041254;28;20423;-92
2022/10/18 12:54:34;;;;;;;31.40;20.43;;;20.00;99.90;;;;;;5041464;28;20414;-92
2022/10/18 12:57:02;;;;;;;30.43;21.60;;;20.10;99.90;;;;;;5063561;28;20374;-92